Partizansk, Russia
Current Conditions -  °F | °C
As of 4:00 AM on Wednesday 22 Oct 2014 (Local Time) from UHWW Reporting Station
Clear Clear  
Wind Chill: 23°   Ceiling: Unl
Heat Index: 28°   Visibility: 6mi
Dew Point:   Wind: 4mph
Humidity: 37%   Direction: 300°WNW
Pressure: 30.24"   Gusts: NA
Location:  43.13°N, 133.13°E
Report Text: UHWW 211800Z 30002MPS 9999 SKC M02/M15 Q1024 NOSIG RMKQFE767/1023 25CLRD70
Loading
Personal Weather Stations






























Interactive Weather Map
Tropical Storm Tracking
New forecast layout! Learn more

10-Day Weather Forecast

Advertisements
Track Severe Weather on mobile